createdAt,value
2022-08-01T00:00:15.047Z,96372.22
2022-08-01T00:02:43.517Z,96375.00
2022-08-01T00:05:13.462Z,96366.22
2022-08-01T00:07:42.522Z,96371.75
2022-08-01T00:10:15.139Z,96371.91
2022-08-01T00:12:44.395Z,96369.47
2022-08-01T00:15:15.756Z,96369.13
2022-08-01T00:17:46.702Z,96345.75
2022-08-01T00:20:17.667Z,96365.22
2022-08-01T00:22:46.551Z,96362.78
2022-08-01T00:25:16.324Z,96365.91
2022-08-01T00:27:45.826Z,96364.28
2022-08-01T00:30:15.901Z,96350.44
2022-08-01T00:32:45.096Z,96355.16
2022-08-01T00:35:14.359Z,96363.28
2022-08-01T00:37:43.602Z,96360.38
2022-08-01T00:40:12.410Z,96368.00
2022-08-01T00:42:43.995Z,96363.94
2022-08-01T00:45:13.445Z,96362.00
2022-08-01T00:47:42.835Z,96364.25
2022-08-01T00:50:12.958Z,96366.84
2022-08-01T00:52:43.232Z,96360.53
2022-08-01T00:55:20.641Z,96355.97
2022-08-01T00:58:04.611Z,96366.69
2022-08-01T01:00:53.258Z,96359.38
2022-08-01T01:03:58.002Z,96357.25
2022-08-01T01:06:29.336Z,96359.34
2022-08-01T01:09:17.517Z,96354.47
2022-08-01T01:11:53.786Z,96343.41
2022-08-01T01:14:33.241Z,96348.94
2022-08-01T01:17:04.640Z,96354.78
2022-08-01T01:19:39.079Z,96356.75
2022-08-01T01:22:23.833Z,96356.06
2022-08-01T01:25:07.911Z,96356.06
2022-08-01T01:27:47.367Z,96352.63
2022-08-01T01:30:18.435Z,96358.63
2022-08-01T01:32:50.710Z,96364.16
2022-08-01T01:35:25.237Z,96361.72
2022-08-01T01:38:00.110Z,96358.75
2022-08-01T01:40:30.558Z,96354.56
2022-08-01T01:42:59.179Z,96359.28
2022-08-01T01:45:30.926Z,96356.00
2022-08-01T01:48:01.134Z,96352.75
2022-08-01T01:50:31.224Z,96363.94
2022-08-01T01:53:03.422Z,96344.44
2022-08-01T01:55:34.127Z,96360.34
2022-08-01T01:58:18.379Z,96353.16
2022-08-01T02:00:50.582Z,96354.59
2022-08-01T02:03:21.149Z,96355.22
2022-08-01T02:05:50.581Z,96365.59
2022-08-01T02:08:20.670Z,96347.03
2022-08-01T02:11:04.080Z,96357.75
2022-08-01T02:13:35.178Z,96356.16
2022-08-01T02:16:05.883Z,96361.78
2022-08-01T02:18:35.636Z,96363.44
2022-08-01T02:21:07.421Z,96367.00
2022-08-01T02:23:39.377Z,96367.31
2022-08-01T02:26:13.566Z,96365.19
2022-08-01T02:28:49.600Z,96369.91
2022-08-01T02:31:23.383Z,96369.91
2022-08-01T02:34:01.317Z,96372.97
2022-08-01T02:36:34.824Z,96371.34
2022-08-01T02:39:08.722Z,96370.84
2022-08-01T02:41:42.754Z,96366.47
2022-08-01T02:44:19.676Z,96365.84
2022-08-01T02:46:53.570Z,96365.84
2022-08-01T02:49:24.266Z,96366.78
2022-08-01T02:51:54.027Z,96373.91
2022-08-01T02:54:25.515Z,96371.00
2022-08-01T02:56:57.412Z,96370.47
2022-08-01T02:59:30.758Z,96373.06
2022-08-01T03:02:03.976Z,96372.25
2022-08-01T03:04:36.195Z,96367.06
2022-08-01T03:07:10.570Z,96373.38
2022-08-01T03:09:42.654Z,96366.25
2022-08-01T03:12:15.719Z,96369.13
2022-08-01T03:14:45.120Z,96373.19
2022-08-01T03:17:18.596Z,96370.06
2022-08-01T03:19:48.666Z,96377.91
2022-08-01T03:22:18.602Z,96373.03
2022-08-01T03:24:52.140Z,96386.66
2022-08-01T03:27:23.594Z,96383.09
2022-08-01T03:29:54.184Z,96384.53
2022-08-01T03:32:25.502Z,96375.59
2022-08-01T03:34:54.702Z,96381.91
2022-08-01T03:37:27.495Z,96391.69
2022-08-01T03:40:00.900Z,96392.81
2022-08-01T03:42:33.994Z,96399.13
2022-08-01T03:45:13.355Z,96396.38
2022-08-01T03:47:46.134Z,96383.47
2022-08-01T03:50:17.714Z,96401.91
2022-08-01T03:52:48.586Z,96403.84
2022-08-01T03:55:19.300Z,96412.44
2022-08-01T03:57:49.149Z,96406.41
2022-08-01T04:00:19.758Z,96406.88
2022-08-01T04:02:50.413Z,96411.38
2022-08-01T04:05:20.043Z,96397.41
2022-08-01T04:07:51.519Z,96396.72
2022-08-01T04:10:20.558Z,96419.16
2022-08-01T04:12:49.024Z,96410.88
2022-08-01T04:15:17.882Z,96418.84
2022-08-01T04:17:46.293Z,96431.16
2022-08-01T04:20:17.181Z,96426.59
2022-08-01T04:22:45.844Z,96423.66
2022-08-01T04:25:19.834Z,96432.56
2022-08-01T04:27:52.430Z,96435.63
2022-08-01T04:30:24.964Z,96434.78
2022-08-01T04:32:56.508Z,96439.78
2022-08-01T04:36:02.294Z,96428.69
2022-08-01T04:38:22.050Z,96439.28
2022-08-01T04:40:54.991Z,96441.00
2022-08-01T04:43:24.393Z,96442.97
2022-08-01T04:45:54.285Z,96450.63
2022-08-01T04:48:25.782Z,96447.53
2022-08-01T04:50:56.543Z,96456.13
2022-08-01T04:53:26.989Z,96456.63
2022-08-01T04:55:55.813Z,96453.56
2022-08-01T04:58:24.200Z,96453.97
2022-08-01T05:00:53.026Z,96451.41
2022-08-01T05:03:22.177Z,96446.72
2022-08-01T05:05:50.682Z,96458.41
2022-08-01T05:08:21.897Z,96463.31
2022-08-01T05:10:50.365Z,96463.00
2022-08-01T05:13:19.432Z,96467.91
2022-08-01T05:15:48.017Z,96470.50
2022-08-01T05:18:17.753Z,96472.34
2022-08-01T05:20:56.352Z,96476.25
2022-08-01T05:23:42.060Z,96483.56
2022-08-01T05:26:14.547Z,96481.31
2022-08-01T05:28:44.095Z,96482.31
2022-08-01T05:31:12.891Z,96454.72
2022-08-01T05:33:41.912Z,96490.09
2022-08-01T05:36:10.711Z,96496.59
2022-08-01T05:38:41.287Z,96477.41
2022-08-01T05:41:09.714Z,96493.09
2022-08-01T05:43:38.838Z,96501.66
2022-08-01T05:46:07.228Z,96505.44
2022-08-01T05:48:36.349Z,96500.84
2022-08-01T05:51:04.978Z,96506.88
2022-08-01T05:53:35.656Z,96501.88
2022-08-01T05:56:05.904Z,96507.25
2022-08-01T05:58:34.806Z,96510.06
2022-08-01T06:01:03.229Z,96511.06
2022-08-01T06:03:34.591Z,96507.63
2022-08-01T06:06:03.214Z,96518.22
2022-08-01T06:08:32.527Z,96514.81
2022-08-01T06:11:01.384Z,96512.16
2022-08-01T06:13:31.168Z,96516.41
2022-08-01T06:15:59.903Z,96524.84
2022-08-01T06:18:28.322Z,96519.41
2022-08-01T06:20:57.969Z,96531.63
2022-08-01T06:23:32.575Z,96535.72
2022-08-01T06:26:02.219Z,96526.97
2022-08-01T06:28:31.970Z,96527.97
2022-08-01T06:31:01.388Z,96530.63
2022-08-01T06:33:30.312Z,96519.31
2022-08-01T06:35:59.391Z,96528.13
2022-08-01T06:38:27.886Z,96527.97
2022-08-01T06:40:56.630Z,96535.97
2022-08-01T06:43:25.228Z,96534.84
2022-08-01T06:45:55.305Z,96540.38
2022-08-01T06:48:23.831Z,96544.41
2022-08-01T06:51:09.233Z,96549.13
2022-08-01T06:53:38.943Z,96544.56
2022-08-01T06:56:10.005Z,96538.69
2022-08-01T06:58:38.536Z,96542.25
2022-08-01T07:01:09.090Z,96547.31
2022-08-01T07:03:53.575Z,96537.41
2022-08-01T07:06:24.711Z,96531.53
2022-08-01T07:08:53.620Z,96545.22
2022-08-01T07:11:24.009Z,96544.44
2022-08-01T07:13:52.875Z,96545.59
2022-08-01T07:16:23.115Z,96542.66
2022-08-01T07:18:52.662Z,96551.78
2022-08-01T07:21:39.966Z,96547.44
2022-08-01T07:24:13.638Z,96552.19
2022-08-01T07:26:52.935Z,96554.75
2022-08-01T07:29:25.019Z,96546.78
2022-08-01T07:31:55.457Z,96558.19
2022-08-01T07:34:25.360Z,96562.09
2022-08-01T07:36:54.534Z,96558.34
2022-08-01T07:39:24.069Z,96560.31
2022-08-01T07:42:05.825Z,96558.03
2022-08-01T07:44:37.738Z,96555.59
2022-08-01T07:47:08.025Z,96544.34
2022-08-01T07:49:40.453Z,96565.00
2022-08-01T07:52:10.012Z,96561.59
2022-08-01T07:54:38.849Z,96556.19
2022-08-01T07:57:08.103Z,96561.59
2022-08-01T07:59:37.278Z,96559.78
2022-08-01T08:02:07.722Z,96562.50
2022-08-01T08:04:36.319Z,96572.75
2022-08-01T08:07:05.453Z,96561.97
2022-08-01T08:09:37.288Z,96559.88
2022-08-01T08:12:08.874Z,96562.09
2022-08-01T08:14:38.500Z,96561.78
2022-08-01T08:17:08.616Z,96556.56
2022-08-01T08:19:39.716Z,96559.84
2022-08-01T08:22:09.942Z,96554.47
2022-08-01T08:24:46.415Z,96570.22
2022-08-01T08:27:16.653Z,96551.00
2022-08-01T08:29:45.726Z,96571.50
2022-08-01T08:32:15.637Z,96562.50
2022-08-01T08:34:44.787Z,96565.06
2022-08-01T08:37:13.824Z,96570.69
2022-08-01T08:39:43.047Z,96564.19
2022-08-01T08:42:12.920Z,96573.81
2022-08-01T08:44:44.467Z,96563.00
2022-08-01T08:47:19.906Z,96564.16
2022-08-01T08:49:51.574Z,96560.88
2022-08-01T08:52:21.720Z,96578.09
2022-08-01T08:54:52.544Z,96572.75
2022-08-01T08:57:22.145Z,96572.88
2022-08-01T08:59:52.983Z,96568.06
2022-08-01T09:02:23.060Z,96569.41
2022-08-01T09:04:52.773Z,96572.66
2022-08-01T09:07:21.264Z,96563.38
2022-08-01T09:09:51.291Z,96564.75
2022-08-01T09:12:21.650Z,96571.16
2022-08-01T09:14:54.352Z,96572.94
2022-08-01T09:17:25.854Z,96571.97
2022-08-01T09:19:57.584Z,96571.50
2022-08-01T09:22:28.301Z,96576.09
2022-08-01T09:25:01.985Z,96570.09
2022-08-01T09:27:32.031Z,96580.13
2022-08-01T09:30:11.595Z,96577.47
2022-08-01T09:32:58.529Z,96559.28
2022-08-01T09:35:31.812Z,96570.25
2022-08-01T09:38:15.511Z,96578.59
2022-08-01T09:40:49.352Z,96570.59
2022-08-01T09:43:18.374Z,96581.72
2022-08-01T09:45:50.527Z,96577.31
2022-08-01T09:48:27.854Z,96567.00
2022-08-01T09:51:04.305Z,96582.31
2022-08-01T09:53:51.216Z,96570.94
2022-08-01T09:56:22.675Z,96572.66
2022-08-01T09:58:58.833Z,96566.91
2022-08-01T10:01:36.829Z,96567.22
2022-08-01T10:04:11.673Z,96573.50
2022-08-01T10:06:43.614Z,96560.06
2022-08-01T10:09:13.852Z,96558.13
2022-08-01T10:11:44.689Z,96552.00
2022-08-01T10:14:18.395Z,96558.28
2022-08-01T10:16:53.595Z,96558.94
2022-08-01T10:19:28.702Z,96549.00
2022-08-01T10:22:00.198Z,96549.63
2022-08-01T10:24:34.978Z,96550.19
2022-08-01T10:27:09.546Z,96553.03
2022-08-01T10:30:05.800Z,96543.97
2022-08-01T10:32:39.616Z,96553.63
2022-08-01T10:35:16.070Z,96542.97
2022-08-01T10:37:52.070Z,96538.81
2022-08-01T10:40:31.520Z,96544.09
2022-08-01T10:43:00.729Z,96531.50
2022-08-01T10:45:30.360Z,96528.84
2022-08-01T10:48:05.117Z,96530.06
2022-08-01T10:50:41.378Z,96522.09
2022-08-01T10:53:16.502Z,96523.00
2022-08-01T10:55:55.289Z,96514.84
2022-08-01T10:58:26.317Z,96524.47
2022-08-01T11:01:21.536Z,96527.97
2022-08-01T11:04:04.968Z,96522.94
2022-08-01T11:06:53.535Z,96517.41
2022-08-01T11:09:37.472Z,96528.75
2022-08-01T11:12:13.191Z,96512.34
2022-08-01T11:15:29.513Z,96509.69
2022-08-01T11:18:04.558Z,96508.56
2022-08-01T11:20:39.542Z,96515.56
2022-08-01T11:23:23.359Z,96512.94
2022-08-01T11:26:14.786Z,96501.38
2022-08-01T11:29:20.656Z,96504.22
2022-08-01T11:31:51.427Z,96492.00
2022-08-01T11:34:20.328Z,96507.22
2022-08-01T11:36:59.270Z,96495.09
2022-08-01T11:39:30.016Z,96503.00
2022-08-01T11:42:20.798Z,96508.97
2022-08-01T11:44:52.638Z,96505.16
2022-08-01T11:47:48.028Z,96484.53
2022-08-01T11:50:33.571Z,96492.00
2022-08-01T11:53:03.247Z,96493.59
2022-08-01T11:55:36.306Z,96488.47
2022-08-01T11:58:06.626Z,96506.44
2022-08-01T12:00:38.229Z,96498.41
2022-08-01T12:03:20.021Z,96492.38
2022-08-01T12:06:01.728Z,96495.38
2022-08-01T12:08:33.978Z,96514.91
2022-08-01T12:11:06.944Z,96496.56
2022-08-01T12:13:44.333Z,96491.28
2022-08-01T12:16:14.176Z,96489.81
2022-08-01T12:18:44.194Z,96487.66
2022-08-01T12:21:12.913Z,96489.47
2022-08-01T12:23:41.575Z,96477.16
2022-08-01T12:26:28.433Z,96487.59
2022-08-01T12:29:00.389Z,96481.22
2022-08-01T12:31:35.895Z,96489.19
2022-08-01T12:34:29.883Z,96488.63
2022-08-01T12:37:00.657Z,96478.72
2022-08-01T12:39:34.274Z,96481.91
2022-08-01T12:42:08.995Z,96487.88
2022-08-01T12:44:37.554Z,96492.44
2022-08-01T12:47:08.447Z,96489.25
2022-08-01T12:49:39.180Z,96495.66
2022-08-01T12:52:12.854Z,96480.69
2022-08-01T12:55:18.760Z,96481.00
2022-08-01T12:57:51.859Z,96472.16
2022-08-01T13:00:24.355Z,96481.41
2022-08-01T13:03:04.316Z,96477.94
2022-08-01T13:05:45.139Z,96477.81
2022-08-01T13:08:14.641Z,96467.56
2022-08-01T13:10:44.238Z,96463.22
2022-08-01T13:13:27.896Z,96466.69
2022-08-01T13:16:06.714Z,96464.59
2022-08-01T13:18:38.679Z,96464.03
2022-08-01T13:21:12.720Z,96459.22
2022-08-01T13:24:01.235Z,96468.31
2022-08-01T13:26:41.739Z,96469.28
2022-08-01T13:29:13.464Z,96460.47
2022-08-01T13:31:43.574Z,96470.06
2022-08-01T13:34:13.219Z,96465.22
2022-08-01T13:36:48.804Z,96455.84
2022-08-01T13:39:36.192Z,96443.88
2022-08-01T13:42:05.388Z,96457.41
2022-08-01T13:44:36.081Z,96446.59
2022-08-01T13:47:15.429Z,96461.81
2022-08-01T13:49:47.868Z,96453.91
2022-08-01T13:52:17.023Z,96452.00
2022-08-01T13:54:45.421Z,96463.25
2022-08-01T13:57:15.600Z,96462.06
2022-08-01T13:59:45.618Z,96463.69
2022-08-01T14:02:14.314Z,96458.25
2022-08-01T14:04:43.151Z,96453.88
2022-08-01T14:07:15.024Z,96452.38
2022-08-01T14:10:18.542Z,96456.25
2022-08-01T14:12:33.807Z,96452.84
2022-08-01T14:15:03.586Z,96456.16
2022-08-01T14:17:32.495Z,96463.56
2022-08-01T14:20:07.662Z,96458.06
2022-08-01T14:22:36.341Z,96468.97
2022-08-01T14:25:05.645Z,96462.56
2022-08-01T14:27:37.134Z,96460.13
2022-08-01T14:30:09.096Z,96466.06
2022-08-01T14:32:38.446Z,96464.25
2022-08-01T14:35:08.452Z,96461.56
2022-08-01T14:37:38.684Z,96464.09
2022-08-01T14:40:11.490Z,96457.63
2022-08-01T14:42:40.757Z,96464.94
2022-08-01T14:45:11.798Z,96457.47
2022-08-01T14:47:42.487Z,96462.38
2022-08-01T14:50:13.832Z,96450.66
2022-08-01T14:52:43.893Z,96447.88
2022-08-01T14:55:13.613Z,96449.38
2022-08-01T14:57:43.000Z,96441.16
2022-08-01T15:00:14.728Z,96462.66
2022-08-01T15:02:43.987Z,96458.31
2022-08-01T15:05:12.575Z,96454.78
2022-08-01T15:07:52.449Z,96460.88
2022-08-01T15:10:22.563Z,96471.38
2022-08-01T15:12:51.500Z,96464.16
2022-08-01T15:15:22.027Z,96468.13
2022-08-01T15:17:50.813Z,96454.28
2022-08-01T15:20:19.194Z,96460.50
2022-08-01T15:22:48.682Z,96461.03
2022-08-01T15:25:17.480Z,96458.28
2022-08-01T15:27:45.866Z,96456.41
2022-08-01T15:30:14.780Z,96452.03
2022-08-01T15:32:44.667Z,96454.09
2022-08-01T15:35:13.154Z,96454.03
2022-08-01T15:37:43.415Z,96457.84
2022-08-01T15:40:35.230Z,96422.75
2022-08-01T15:43:10.167Z,96447.59
2022-08-01T15:45:47.780Z,96451.53
2022-08-01T15:48:17.997Z,96445.97
2022-08-01T15:50:47.530Z,96442.25
2022-08-01T15:53:16.112Z,96446.28
2022-08-01T15:55:52.343Z,96446.81
2022-08-01T15:58:21.518Z,96443.69
2022-08-01T16:00:50.786Z,96445.31
2022-08-01T16:03:22.099Z,96452.22
2022-08-01T16:05:50.999Z,96433.00
2022-08-01T16:08:19.985Z,96453.75
2022-08-01T16:10:48.411Z,96450.25
2022-08-01T16:13:18.000Z,96463.50
2022-08-01T16:15:46.414Z,96481.03
2022-08-01T16:18:16.410Z,96482.41
2022-08-01T16:20:46.400Z,96506.72
2022-08-01T16:23:15.550Z,96522.63
2022-08-01T16:25:44.930Z,96531.50
2022-08-01T16:28:14.084Z,96540.13
2022-08-01T16:30:50.898Z,96564.38
2022-08-01T16:33:45.221Z,96561.22
2022-08-01T16:36:25.128Z,96546.13
2022-08-01T16:38:54.161Z,96532.63
2022-08-01T16:41:22.677Z,96513.91
2022-08-01T16:43:53.318Z,96506.44
2022-08-01T16:46:25.472Z,96510.13
2022-08-01T16:48:54.178Z,96491.94
2022-08-01T16:51:25.037Z,96482.19
2022-08-01T16:53:53.453Z,96482.00
2022-08-01T16:56:22.821Z,96469.81
2022-08-01T16:58:51.279Z,96467.50
2022-08-01T17:02:00.993Z,96475.31
2022-08-01T17:04:08.600Z,96462.91
2022-08-01T17:06:39.092Z,96462.53
2022-08-01T17:09:09.233Z,96441.56
2022-08-01T17:11:38.631Z,96457.19
2022-08-01T17:14:06.965Z,96447.47
2022-08-01T17:16:35.715Z,96433.00
2022-08-01T17:19:04.951Z,96455.13
2022-08-01T17:21:34.090Z,96444.56
2022-08-01T17:24:04.546Z,96445.03
2022-08-01T17:26:32.925Z,96444.72
2022-08-01T17:29:01.338Z,96443.78
2022-08-01T17:31:30.623Z,96450.25
2022-08-01T17:33:59.166Z,96448.50
2022-08-01T17:36:28.563Z,96461.00
2022-08-01T17:38:56.888Z,96456.47
2022-08-01T17:41:27.527Z,96460.69
2022-08-01T17:43:55.905Z,96462.19
2022-08-01T17:46:25.117Z,96467.38
2022-08-01T17:48:53.926Z,96466.41
2022-08-01T17:51:23.015Z,96465.75
2022-08-01T17:53:56.945Z,96461.84
2022-08-01T17:56:28.419Z,96463.94
2022-08-01T17:58:58.279Z,96452.06
2022-08-01T18:01:27.399Z,96460.84
2022-08-01T18:03:57.560Z,96457.94
2022-08-01T18:06:27.360Z,96452.88
2022-08-01T18:08:59.536Z,96478.59
2022-08-01T18:11:37.435Z,96477.13
2022-08-01T18:14:07.286Z,96470.28
2022-08-01T18:16:35.767Z,96463.13
2022-08-01T18:19:06.961Z,96477.78
2022-08-01T18:21:37.576Z,96474.88
2022-08-01T18:24:10.192Z,96481.06
2022-08-01T18:26:39.869Z,96475.22
2022-08-01T18:29:10.134Z,96475.16
2022-08-01T18:31:40.682Z,96483.47
2022-08-01T18:34:09.775Z,96496.47
2022-08-01T18:36:40.371Z,96482.50
2022-08-01T18:39:10.924Z,96482.66
2022-08-01T18:41:41.054Z,96482.66
2022-08-01T18:44:10.079Z,96479.41
2022-08-01T18:46:39.991Z,96451.75
2022-08-01T18:49:11.051Z,96469.31
2022-08-01T18:51:44.321Z,96478.41
2022-08-01T18:54:14.640Z,96477.44
2022-08-01T18:56:45.554Z,96492.22
2022-08-01T18:59:15.471Z,96497.13
2022-08-01T19:01:43.985Z,96498.75
2022-08-01T19:04:13.781Z,96496.00
2022-08-01T19:06:43.285Z,96501.84
2022-08-01T19:09:20.421Z,96508.34
2022-08-01T19:11:50.601Z,96513.06
2022-08-01T19:14:19.677Z,96503.28
2022-08-01T19:16:48.546Z,96510.44
2022-08-01T19:19:27.383Z,96509.16
2022-08-01T19:21:57.165Z,96521.28
2022-08-01T19:24:25.771Z,96524.72
2022-08-01T19:26:58.313Z,96514.34
2022-08-01T19:29:36.000Z,96521.28
2022-08-01T19:32:07.111Z,96525.19
2022-08-01T19:34:37.879Z,96508.09
2022-08-01T19:37:08.881Z,96526.31
2022-08-01T19:39:37.465Z,96523.09
2022-08-01T19:42:09.951Z,96531.72
2022-08-01T19:44:38.665Z,96529.09
2022-08-01T19:47:08.012Z,96532.66
2022-08-01T19:49:37.328Z,96536.06
2022-08-01T19:52:07.218Z,96537.34
2022-08-01T19:54:38.079Z,96536.22
2022-08-01T19:57:09.983Z,96535.19
2022-08-01T19:59:39.388Z,96540.03
2022-08-01T20:02:09.102Z,96529.59
2022-08-01T20:04:37.492Z,96544.91
2022-08-01T20:07:07.074Z,96543.78
2022-08-01T20:09:36.074Z,96540.16
2022-08-01T20:12:05.014Z,96545.97
2022-08-01T20:14:35.514Z,96559.31
2022-08-01T20:17:03.875Z,96565.03
2022-08-01T20:19:33.535Z,96562.75
2022-08-01T20:22:06.101Z,96567.94
2022-08-01T20:24:41.032Z,96582.53
2022-08-01T20:27:11.828Z,96586.84
2022-08-01T20:29:45.251Z,96591.66
2022-08-01T20:32:14.518Z,96587.59
2022-08-01T20:34:44.996Z,96582.56
2022-08-01T20:37:14.237Z,96575.22
2022-08-01T20:39:44.891Z,96586.84
2022-08-01T20:42:14.901Z,96591.72
2022-08-01T20:44:49.551Z,96587.69
2022-08-01T20:47:18.219Z,96595.16
2022-08-01T20:49:47.842Z,96590.25
2022-08-01T20:52:16.804Z,96591.56
2022-08-01T20:54:46.237Z,96592.50
2022-08-01T20:57:23.432Z,96595.56
2022-08-01T20:59:59.219Z,96603.69
2022-08-01T21:02:42.500Z,96603.69
2022-08-01T21:05:12.778Z,96611.53
2022-08-01T21:07:47.288Z,96606.22
2022-08-01T21:10:20.044Z,96614.50
2022-08-01T21:12:50.659Z,96613.00
2022-08-01T21:15:28.652Z,96608.72
2022-08-01T21:18:02.291Z,96600.59
2022-08-01T21:20:34.410Z,96590.59
2022-08-01T21:23:21.867Z,96593.50
2022-08-01T21:25:54.206Z,96586.66
2022-08-01T21:28:26.256Z,96589.91
2022-08-01T21:30:57.643Z,96587.31
2022-08-01T21:33:28.733Z,96582.00
2022-08-01T21:36:06.108Z,96582.19
2022-08-01T21:38:40.419Z,96588.03
2022-08-01T21:41:09.455Z,96584.75
2022-08-01T21:43:39.521Z,96585.56
2022-08-01T21:46:10.225Z,96586.09
2022-08-01T21:48:40.187Z,96569.25
2022-08-01T21:51:23.353Z,96593.66
2022-08-01T21:54:10.202Z,96598.06
2022-08-01T21:56:48.619Z,96603.47
2022-08-01T21:59:25.182Z,96615.84
2022-08-01T22:02:02.729Z,96617.38
2022-08-01T22:04:39.922Z,96622.88
2022-08-01T22:07:10.850Z,96625.00
2022-08-01T22:09:40.648Z,96623.09
2022-08-01T22:12:13.524Z,96623.59
2022-08-01T22:14:48.796Z,96619.00
2022-08-01T22:17:22.732Z,96629.91
2022-08-01T22:19:54.314Z,96640.66
2022-08-01T22:22:32.291Z,96646.78
2022-08-01T22:25:14.602Z,96661.94
2022-08-01T22:28:07.901Z,96659.22
2022-08-01T22:30:35.623Z,96655.56
2022-08-01T22:33:08.088Z,96671.72
2022-08-01T22:35:47.595Z,96664.19
2022-08-01T22:38:18.814Z,96654.88
2022-08-01T22:40:51.020Z,96666.13
2022-08-01T22:43:27.073Z,96656.63
2022-08-01T22:46:08.835Z,96659.66
2022-08-01T22:48:46.564Z,96662.25
2022-08-01T22:51:27.334Z,96657.94
2022-08-01T22:54:05.523Z,96656.63
2022-08-01T22:56:38.059Z,96646.53
2022-08-01T22:59:12.620Z,96645.00
2022-08-01T23:01:47.571Z,96642.53
2022-08-01T23:04:33.830Z,96637.72
2022-08-01T23:07:06.156Z,96637.81
2022-08-01T23:09:53.047Z,96634.56
2022-08-01T23:12:26.212Z,96633.94
2022-08-01T23:14:56.527Z,96632.94
2022-08-01T23:17:27.219Z,96629.16
2022-08-01T23:20:01.412Z,96634.97
2022-08-01T23:22:32.047Z,96640.47
2022-08-01T23:25:05.318Z,96634.16
2022-08-01T23:28:03.999Z,96637.41
2022-08-01T23:30:28.131Z,96634.97
2022-08-01T23:32:56.817Z,96631.91
2022-08-01T23:35:27.925Z,96634.88
2022-08-01T23:38:01.968Z,96628.44
2022-08-01T23:40:33.020Z,96632.84
2022-08-01T23:43:02.355Z,96632.22
2022-08-01T23:46:01.751Z,96628.84
2022-08-01T23:48:21.360Z,96634.06
2022-08-01T23:50:51.137Z,96632.94
2022-08-01T23:53:19.946Z,96630.50
2022-08-01T23:55:49.198Z,96638.84
2022-08-01T23:58:18.921Z,96640.47
